createdAt,value
2023-03-06T00:00:08.932Z,94980.78
2023-03-06T00:02:39.900Z,94978.81
2023-03-06T00:05:08.692Z,94976.19
2023-03-06T00:07:36.780Z,94969.34
2023-03-06T00:10:05.556Z,94971.97
2023-03-06T00:12:33.634Z,94969.34
2023-03-06T00:15:02.370Z,94965.13
2023-03-06T00:17:32.964Z,94963.31
2023-03-06T00:20:01.080Z,94968.19
2023-03-06T00:22:29.186Z,94966.34
2023-03-06T00:24:57.272Z,94964.75
2023-03-06T00:27:26.337Z,94972.63
2023-03-06T00:29:58.316Z,94962.94
2023-03-06T00:32:26.633Z,94967.38
2023-03-06T00:34:56.222Z,94958.47
2023-03-06T00:37:25.302Z,94955.84
2023-03-06T00:39:53.568Z,94958.09
2023-03-06T00:42:23.218Z,94947.81
2023-03-06T00:44:53.233Z,94943.03
2023-03-06T00:47:21.386Z,94949.31
2023-03-06T00:49:49.427Z,94941.44
2023-03-06T00:52:19.199Z,94938.59
2023-03-06T00:54:47.261Z,94939.81
2023-03-06T00:57:15.331Z,94935.81
2023-03-06T00:59:43.502Z,94934.19
2023-03-06T01:02:11.636Z,94928.00
2023-03-06T01:04:40.018Z,94926.41
2023-03-06T01:07:08.103Z,94920.56
2023-03-06T01:09:37.522Z,94927.22
2023-03-06T01:12:05.928Z,94921.38
2023-03-06T01:14:35.530Z,94921.59
2023-03-06T01:17:03.880Z,94914.50
2023-03-06T01:19:31.895Z,94909.06
2023-03-06T01:21:59.966Z,94898.41
2023-03-06T01:24:28.609Z,94896.22
2023-03-06T01:26:59.315Z,94896.44
2023-03-06T01:29:27.493Z,94899.88
2023-03-06T01:31:55.881Z,94899.06
2023-03-06T01:34:24.013Z,94886.97
2023-03-06T01:36:52.054Z,94888.78
2023-03-06T01:39:20.207Z,94885.03
2023-03-06T01:41:48.191Z,94881.38
2023-03-06T01:44:17.972Z,94882.81
2023-03-06T01:46:46.286Z,94884.28
2023-03-06T01:49:17.251Z,94885.06
2023-03-06T01:51:49.207Z,94881.22
2023-03-06T01:54:19.033Z,94879.97
2023-03-06T01:56:47.959Z,94877.28
2023-03-06T01:59:17.743Z,94869.56
2023-03-06T02:01:45.837Z,94872.28
2023-03-06T02:04:15.569Z,94871.28
2023-03-06T02:06:44.243Z,94875.28
2023-03-06T02:09:12.692Z,94863.88
2023-03-06T02:11:43.957Z,94859.59
2023-03-06T02:14:13.360Z,94846.00
2023-03-06T02:16:42.917Z,94852.03
2023-03-06T02:19:18.171Z,94849.22
2023-03-06T02:21:46.265Z,94847.50
2023-03-06T02:24:28.189Z,94846.47
2023-03-06T02:26:57.694Z,94844.88
2023-03-06T02:29:28.403Z,94833.72
2023-03-06T02:32:00.012Z,94837.13
2023-03-06T02:34:53.317Z,94828.22
2023-03-06T02:37:21.499Z,94823.31
2023-03-06T02:39:51.201Z,94821.28
2023-03-06T02:42:22.146Z,94814.78
2023-03-06T02:44:50.227Z,94815.56
2023-03-06T02:47:18.291Z,94812.16
2023-03-06T02:49:46.367Z,94813.75
2023-03-06T02:52:14.402Z,94807.25
2023-03-06T02:54:42.764Z,94812.03
2023-03-06T02:57:10.953Z,94802.91
2023-03-06T02:59:40.440Z,94802.09
2023-03-06T03:02:08.550Z,94799.47
2023-03-06T03:04:36.635Z,94800.06
2023-03-06T03:07:05.286Z,94793.56
2023-03-06T03:09:36.966Z,94792.97
2023-03-06T03:12:06.726Z,94787.72
2023-03-06T03:14:35.282Z,94789.09
2023-03-06T03:17:05.786Z,94788.06
2023-03-06T03:19:33.919Z,94786.00
2023-03-06T03:22:02.061Z,94778.13
2023-03-06T03:24:30.231Z,94784.19
2023-03-06T03:26:58.445Z,94777.91
2023-03-06T03:29:26.633Z,94773.44
2023-03-06T03:31:55.511Z,94774.25
2023-03-06T03:34:28.248Z,94763.72
2023-03-06T03:36:56.743Z,94774.03
2023-03-06T03:39:24.785Z,94766.38
2023-03-06T03:41:53.397Z,94763.50
2023-03-06T03:44:21.590Z,94767.97
2023-03-06T03:46:50.231Z,94762.94
2023-03-06T03:49:22.492Z,94767.38
2023-03-06T03:51:52.772Z,94769.22
2023-03-06T03:54:22.027Z,94762.13
2023-03-06T03:56:52.128Z,94758.47
2023-03-06T03:59:25.763Z,94759.72
2023-03-06T04:02:05.093Z,94759.50
2023-03-06T04:04:38.472Z,94752.44
2023-03-06T04:07:08.589Z,94755.63
2023-03-06T04:09:37.662Z,94749.91
2023-03-06T04:12:06.238Z,94746.25
2023-03-06T04:14:36.824Z,94748.31
2023-03-06T04:17:05.623Z,94738.63
2023-03-06T04:19:34.442Z,94734.59
2023-03-06T04:22:03.210Z,94727.53
2023-03-06T04:24:34.784Z,94716.22
2023-03-06T04:27:03.663Z,94716.00
2023-03-06T04:29:32.469Z,94725.47
2023-03-06T04:32:01.094Z,94728.09
2023-03-06T04:34:29.315Z,94724.69
2023-03-06T04:36:58.312Z,94718.63
2023-03-06T04:39:26.362Z,94705.72
2023-03-06T04:41:56.772Z,94709.59
2023-03-06T04:44:24.911Z,94699.28
2023-03-06T04:46:53.008Z,94709.00
2023-03-06T04:49:21.112Z,94695.28
2023-03-06T04:51:49.217Z,94701.81
2023-03-06T04:54:18.977Z,94694.75
2023-03-06T04:56:47.534Z,94700.44
2023-03-06T04:59:17.024Z,94692.13
2023-03-06T05:01:45.091Z,94695.28
2023-03-06T05:04:13.144Z,94701.03
2023-03-06T05:06:41.151Z,94691.91
2023-03-06T05:09:09.206Z,94690.84
2023-03-06T05:11:37.552Z,94684.00
2023-03-06T05:14:05.647Z,94681.38
2023-03-06T05:16:35.127Z,94681.38
2023-03-06T05:19:03.425Z,94677.69
2023-03-06T05:21:31.582Z,94681.38
2023-03-06T05:24:00.023Z,94682.41
2023-03-06T05:26:28.141Z,94672.13
2023-03-06T05:28:56.539Z,94677.97
2023-03-06T05:31:24.667Z,94675.06
2023-03-06T05:33:54.165Z,94681.38
2023-03-06T05:36:23.260Z,94674.28
2023-03-06T05:38:51.671Z,94675.31
2023-03-06T05:41:19.942Z,94669.28
2023-03-06T05:43:48.656Z,94666.66
2023-03-06T05:46:17.092Z,94660.38
2023-03-06T05:48:46.782Z,94666.97
2023-03-06T05:51:16.822Z,94665.13
2023-03-06T05:53:44.865Z,94657.84
2023-03-06T05:56:14.110Z,94654.19
2023-03-06T05:58:42.157Z,94662.84
2023-03-06T06:01:11.079Z,94654.41
2023-03-06T06:03:39.420Z,94658.63
2023-03-06T06:06:08.192Z,94649.28
2023-03-06T06:08:37.608Z,94655.28
2023-03-06T06:11:06.112Z,94655.88
2023-03-06T06:13:34.192Z,94662.72
2023-03-06T06:16:07.202Z,94655.06
2023-03-06T06:18:35.358Z,94654.03
2023-03-06T06:21:06.776Z,94654.84
2023-03-06T06:23:34.869Z,94659.06
2023-03-06T06:26:04.552Z,94664.69
2023-03-06T06:28:33.446Z,94649.94
2023-03-06T06:31:01.565Z,94654.97
2023-03-06T06:33:29.883Z,94659.97
2023-03-06T06:35:57.966Z,94662.13
2023-03-06T06:38:26.140Z,94654.72
2023-03-06T06:41:30.662Z,94650.25
2023-03-06T06:43:43.629Z,94650.81
2023-03-06T06:46:44.559Z,94649.00
2023-03-06T06:49:02.369Z,94657.47
2023-03-06T06:51:32.313Z,94652.78
2023-03-06T06:54:00.633Z,94651.97
2023-03-06T06:56:28.734Z,94645.69
2023-03-06T06:59:15.321Z,94653.34
2023-03-06T07:01:44.500Z,94640.22
2023-03-06T07:04:13.134Z,94643.59
2023-03-06T07:06:41.319Z,94644.97
2023-03-06T07:09:09.412Z,94646.00
2023-03-06T07:11:38.429Z,94638.34
2023-03-06T07:14:08.214Z,94642.34
2023-03-06T07:16:36.300Z,94644.97
2023-03-06T07:19:04.434Z,94637.31
2023-03-06T07:21:32.550Z,94646.81
2023-03-06T07:24:00.660Z,94652.06
2023-03-06T07:26:28.867Z,94648.41
2023-03-06T07:28:57.209Z,94648.97
2023-03-06T07:31:27.435Z,94648.75
2023-03-06T07:33:55.603Z,94654.56
2023-03-06T07:36:23.738Z,94652.63
2023-03-06T07:38:51.780Z,94650.81
2023-03-06T07:41:22.520Z,94652.25
2023-03-06T07:43:50.935Z,94646.88
2023-03-06T07:46:19.430Z,94652.25
2023-03-06T07:48:48.931Z,94656.56
2023-03-06T07:51:17.922Z,94661.44
2023-03-06T07:53:46.033Z,94658.06
2023-03-06T07:56:14.526Z,94662.63
2023-03-06T07:58:43.780Z,94656.31
2023-03-06T08:01:12.840Z,94655.94
2023-03-06T08:03:40.950Z,94653.41
2023-03-06T08:06:11.805Z,94655.00
2023-03-06T08:08:40.743Z,94657.53
2023-03-06T08:11:09.238Z,94656.19
2023-03-06T08:13:37.355Z,94653.47
2023-03-06T08:16:05.792Z,94659.19
2023-03-06T08:18:34.066Z,94652.66
2023-03-06T08:21:04.050Z,94647.41
2023-03-06T08:23:33.767Z,94644.38
2023-03-06T08:26:02.882Z,94637.16
2023-03-06T08:28:30.956Z,94635.00
2023-03-06T08:30:59.060Z,94640.91
2023-03-06T08:33:28.217Z,94638.66
2023-03-06T08:35:56.334Z,94643.16
2023-03-06T08:38:24.709Z,94638.66
2023-03-06T08:40:54.197Z,94643.41
2023-03-06T08:43:22.284Z,94640.13
2023-03-06T08:45:53.419Z,94642.38
2023-03-06T08:48:21.504Z,94639.56
2023-03-06T08:50:49.928Z,94646.66
2023-03-06T08:53:18.112Z,94636.91
2023-03-06T08:55:46.203Z,94641.97
2023-03-06T08:58:15.664Z,94650.41
2023-03-06T09:00:43.929Z,94653.53
2023-03-06T09:03:12.063Z,94649.28
2023-03-06T09:05:40.998Z,94637.81
2023-03-06T09:08:09.121Z,94652.72
2023-03-06T09:10:37.257Z,94652.25
2023-03-06T09:13:05.532Z,94652.38
2023-03-06T09:15:35.103Z,94650.59
2023-03-06T09:18:03.521Z,94645.19
2023-03-06T09:20:31.816Z,94650.47
2023-03-06T09:22:59.919Z,94649.41
2023-03-06T09:25:27.933Z,94647.41
2023-03-06T09:28:10.538Z,94656.34
2023-03-06T09:30:42.504Z,94648.28
2023-03-06T09:33:10.700Z,94647.13
2023-03-06T09:35:42.886Z,94659.97
2023-03-06T09:38:10.912Z,94653.59
2023-03-06T09:40:43.540Z,94650.78
2023-03-06T09:43:12.668Z,94652.94
2023-03-06T09:45:42.426Z,94653.00
2023-03-06T09:48:12.347Z,94650.47
2023-03-06T09:50:42.027Z,94655.53
2023-03-06T09:53:20.148Z,94654.31
2023-03-06T09:55:50.266Z,94655.78
2023-03-06T09:58:19.292Z,94655.38
2023-03-06T10:00:52.771Z,94652.19
2023-03-06T10:03:22.963Z,94652.59
2023-03-06T10:05:52.068Z,94652.91
2023-03-06T10:08:23.204Z,94660.78
2023-03-06T10:10:54.508Z,94663.25
2023-03-06T10:13:26.931Z,94654.84
2023-03-06T10:15:59.914Z,94649.16
2023-03-06T10:18:28.045Z,94649.06
2023-03-06T10:21:07.398Z,94643.88
2023-03-06T10:23:44.584Z,94645.44
2023-03-06T10:26:14.505Z,94646.13
2023-03-06T10:28:43.148Z,94648.53
2023-03-06T10:31:14.817Z,94638.66
2023-03-06T10:33:49.515Z,94647.13
2023-03-06T10:36:18.421Z,94647.59
2023-03-06T10:38:48.411Z,94641.50
2023-03-06T10:41:24.167Z,94643.47
2023-03-06T10:44:21.790Z,94642.81
2023-03-06T10:46:52.449Z,94643.06
2023-03-06T10:49:32.083Z,94635.25
2023-03-06T10:52:02.277Z,94640.53
2023-03-06T10:54:31.616Z,94642.03
2023-03-06T10:56:59.706Z,94639.41
2023-03-06T10:59:29.486Z,94638.69
2023-03-06T11:01:59.584Z,94639.53
2023-03-06T11:04:28.847Z,94638.59
2023-03-06T11:07:15.370Z,94635.06
2023-03-06T11:09:43.740Z,94633.56
2023-03-06T11:12:23.701Z,94637.00
2023-03-06T11:15:09.937Z,94633.22
2023-03-06T11:17:43.592Z,94647.28
2023-03-06T11:20:18.302Z,94639.69
2023-03-06T11:22:49.244Z,94640.00
2023-03-06T11:25:18.082Z,94637.00
2023-03-06T11:27:46.510Z,94635.47
2023-03-06T11:30:18.013Z,94635.88
2023-03-06T11:32:50.447Z,94630.19
2023-03-06T11:35:21.618Z,94623.38
2023-03-06T11:37:53.871Z,94618.91
2023-03-06T11:40:24.662Z,94616.38
2023-03-06T11:42:57.101Z,94609.28
2023-03-06T11:45:27.793Z,94608.63
2023-03-06T11:48:02.925Z,94615.00
2023-03-06T11:50:33.940Z,94612.97
2023-03-06T11:53:02.743Z,94598.50
2023-03-06T11:55:38.285Z,94606.41
2023-03-06T11:58:33.276Z,94608.72
2023-03-06T12:01:02.983Z,94602.53
2023-03-06T12:03:57.849Z,94602.72
2023-03-06T12:06:30.831Z,94594.28
2023-03-06T12:09:04.906Z,94587.41
2023-03-06T12:11:36.060Z,94591.59
2023-03-06T12:14:19.582Z,94587.47
2023-03-06T12:17:08.477Z,94584.56
2023-03-06T12:19:55.845Z,94577.69
2023-03-06T12:22:32.962Z,94578.78
2023-03-06T12:25:11.633Z,94582.41
2023-03-06T12:27:43.475Z,94574.56
2023-03-06T12:30:40.330Z,94568.44
2023-03-06T12:33:14.839Z,94568.84
2023-03-06T12:35:55.020Z,94568.69
2023-03-06T12:38:39.963Z,94565.09
2023-03-06T12:41:13.486Z,94559.41
2023-03-06T12:44:02.530Z,94553.25
2023-03-06T12:46:30.621Z,94556.38
2023-03-06T12:49:03.521Z,94561.88
2023-03-06T12:51:33.151Z,94558.22
2023-03-06T12:54:01.565Z,94556.53
2023-03-06T12:56:30.178Z,94568.69
2023-03-06T12:58:58.672Z,94550.53
2023-03-06T13:01:45.638Z,94552.88
2023-03-06T13:04:25.096Z,94551.13
2023-03-06T13:07:04.144Z,94552.72
2023-03-06T13:09:34.259Z,94555.91
2023-03-06T13:12:14.099Z,94550.06
2023-03-06T13:14:54.742Z,94553.75
2023-03-06T13:17:34.059Z,94555.91
2023-03-06T13:20:35.804Z,94555.13
2023-03-06T13:23:43.909Z,94550.97
2023-03-06T13:26:36.553Z,94548.91
2023-03-06T13:29:06.077Z,94550.66
2023-03-06T13:32:07.410Z,94547.78
2023-03-06T13:34:36.259Z,94548.84
2023-03-06T13:37:37.910Z,94548.59
2023-03-06T13:40:16.551Z,94548.13
2023-03-06T13:42:59.654Z,94552.59
2023-03-06T13:45:33.111Z,94547.50
2023-03-06T13:48:41.273Z,94549.41
2023-03-06T13:50:49.767Z,94547.78
2023-03-06T13:53:42.391Z,94549.97
2023-03-06T13:56:35.136Z,94553.06
2023-03-06T13:59:14.367Z,94552.16
2023-03-06T14:01:48.462Z,94547.00
2023-03-06T14:04:38.127Z,94557.25
2023-03-06T14:07:13.662Z,94546.19
2023-03-06T14:09:43.316Z,94547.47
2023-03-06T14:12:18.068Z,94551.69
2023-03-06T14:14:49.180Z,94543.47
2023-03-06T14:17:24.703Z,94546.06
2023-03-06T14:19:52.874Z,94548.94
2023-03-06T14:22:23.627Z,94541.31
2023-03-06T14:24:57.403Z,94544.81
2023-03-06T14:27:42.953Z,94547.75
2023-03-06T14:30:14.103Z,94542.22
2023-03-06T14:32:43.912Z,94546.78
2023-03-06T14:35:23.531Z,94551.00
2023-03-06T14:37:53.478Z,94541.97
2023-03-06T14:40:22.808Z,94546.47
2023-03-06T14:42:50.864Z,94536.94
2023-03-06T14:45:19.828Z,94534.03
2023-03-06T14:47:53.288Z,94541.63
2023-03-06T14:50:25.204Z,94546.53
2023-03-06T14:52:55.154Z,94540.44
2023-03-06T14:55:24.759Z,94545.06
2023-03-06T14:57:56.035Z,94544.28
2023-03-06T15:00:24.800Z,94540.22
2023-03-06T15:02:54.269Z,94545.75
2023-03-06T15:05:23.472Z,94544.94
2023-03-06T15:07:51.742Z,94543.63
2023-03-06T15:10:24.454Z,94547.53
2023-03-06T15:12:52.933Z,94549.38
2023-03-06T15:15:33.021Z,94546.66
2023-03-06T15:18:02.422Z,94552.72
2023-03-06T15:20:54.324Z,94542.97
2023-03-06T15:23:25.005Z,94551.44
2023-03-06T15:25:55.636Z,94545.38
2023-03-06T15:28:34.784Z,94541.94
2023-03-06T15:31:05.250Z,94534.78
2023-03-06T15:33:34.815Z,94542.38
2023-03-06T15:36:03.342Z,94537.56
2023-03-06T15:38:35.196Z,94537.03
2023-03-06T15:41:03.771Z,94533.84
2023-03-06T15:43:35.090Z,94545.91
2023-03-06T15:46:03.217Z,94540.06
2023-03-06T15:48:31.389Z,94540.59
2023-03-06T15:51:00.919Z,94538.19
2023-03-06T15:53:29.563Z,94540.03
2023-03-06T15:55:57.991Z,94546.56
2023-03-06T15:58:26.874Z,94547.84
2023-03-06T16:00:55.074Z,94540.19
2023-03-06T16:03:23.165Z,94544.69
2023-03-06T16:05:51.309Z,94540.44
2023-03-06T16:08:21.026Z,94539.66
2023-03-06T16:10:50.559Z,94538.28
2023-03-06T16:13:20.741Z,94543.78
2023-03-06T16:15:49.740Z,94533.75
2023-03-06T16:18:17.958Z,94540.06
2023-03-06T16:20:46.121Z,94537.91
2023-03-06T16:23:15.448Z,94533.91
2023-03-06T16:25:47.536Z,94531.28
2023-03-06T16:28:16.878Z,94534.16
2023-03-06T16:30:45.188Z,94529.16
2023-03-06T16:33:13.659Z,94533.84
2023-03-06T16:38:36.977Z,94538.56
2023-03-06T16:41:06.941Z,94541.19
2023-03-06T16:43:35.178Z,94541.66
2023-03-06T16:46:05.758Z,94546.13
2023-03-06T16:48:34.024Z,94543.19
2023-03-06T16:51:02.113Z,94540.78
2023-03-06T16:53:30.182Z,94543.44
2023-03-06T16:55:58.277Z,94548.13
2023-03-06T16:58:28.418Z,94542.81
2023-03-06T17:00:56.802Z,94548.06
2023-03-06T17:03:25.210Z,94552.28
2023-03-06T17:05:53.581Z,94551.97
2023-03-06T17:08:21.673Z,94554.03
2023-03-06T17:10:50.312Z,94558.50
2023-03-06T17:13:18.727Z,94553.47
2023-03-06T17:15:56.433Z,94562.16
2023-03-06T17:18:25.245Z,94562.41
2023-03-06T17:20:53.540Z,94558.44
2023-03-06T17:23:22.123Z,94566.31
2023-03-06T17:25:50.223Z,94568.97
2023-03-06T17:28:18.754Z,94568.16
2023-03-06T17:30:46.870Z,94572.63
2023-03-06T17:33:16.421Z,94562.91
2023-03-06T17:35:44.511Z,94577.09
2023-03-06T17:38:12.661Z,94576.28
2023-03-06T17:40:41.008Z,94576.28
2023-03-06T17:43:09.097Z,94575.25
2023-03-06T17:45:37.301Z,94575.50
2023-03-06T17:48:05.720Z,94583.38
2023-03-06T17:50:35.208Z,94585.00
2023-03-06T17:53:03.328Z,94578.69
2023-03-06T17:55:31.765Z,94583.94
2023-03-06T17:58:00.034Z,94586.59
2023-03-06T18:00:28.224Z,94594.47
2023-03-06T18:02:56.285Z,94590.00
2023-03-06T18:05:24.533Z,94586.59
2023-03-06T18:07:54.646Z,94592.66
2023-03-06T18:10:22.772Z,94590.81
2023-03-06T18:12:51.174Z,94595.28
2023-03-06T18:15:19.416Z,94593.69
2023-03-06T18:17:47.556Z,94593.69
2023-03-06T18:20:15.676Z,94595.50
2023-03-06T18:22:44.089Z,94602.84
2023-03-06T18:25:13.611Z,94600.44
2023-03-06T18:27:41.698Z,94603.06
2023-03-06T18:30:10.952Z,94609.38
2023-03-06T18:32:39.084Z,94605.13
2023-03-06T18:35:09.266Z,94608.56
2023-03-06T18:37:37.388Z,94609.59
2023-03-06T18:40:06.158Z,94606.19
2023-03-06T18:42:35.659Z,94615.13
2023-03-06T18:45:04.300Z,94608.25
2023-03-06T18:47:32.433Z,94606.66
2023-03-06T18:50:02.773Z,94604.03
2023-03-06T18:52:30.899Z,94608.50
2023-03-06T18:54:58.953Z,94601.41
2023-03-06T18:57:29.224Z,94606.34
2023-03-06T18:59:59.595Z,94603.69
2023-03-06T19:02:28.167Z,94611.81
2023-03-06T19:04:56.302Z,94612.84
2023-03-06T19:07:24.396Z,94607.84
2023-03-06T19:09:52.515Z,94609.91
2023-03-06T19:12:20.599Z,94614.38
2023-03-06T19:14:48.809Z,94605.69
2023-03-06T19:17:18.531Z,94604.88
2023-03-06T19:19:46.745Z,94611.97
2023-03-06T19:22:14.867Z,94608.56
2023-03-06T19:24:42.921Z,94610.63
2023-03-06T19:27:11.527Z,94607.97
2023-03-06T19:29:40.129Z,94603.53
2023-03-06T19:32:08.676Z,94602.72
2023-03-06T19:34:38.219Z,94607.75
2023-03-06T19:37:06.343Z,94605.69
2023-03-06T19:39:34.445Z,94598.03
2023-03-06T19:42:04.661Z,94603.53
2023-03-06T19:44:32.779Z,94599.84
2023-03-06T19:47:00.928Z,94600.31
2023-03-06T19:49:29.074Z,94595.84
2023-03-06T19:51:58.537Z,94597.47
2023-03-06T19:54:26.924Z,94600.66
2023-03-06T19:56:55.263Z,94594.59
2023-03-06T19:59:23.388Z,94600.66
2023-03-06T20:01:51.575Z,94594.81
2023-03-06T20:04:19.871Z,94594.03
2023-03-06T20:06:49.024Z,94591.41
2023-03-06T20:09:18.914Z,94589.56
2023-03-06T20:11:46.995Z,94585.34
2023-03-06T20:14:15.068Z,94586.41
2023-03-06T20:16:43.114Z,94587.16
2023-03-06T20:19:11.311Z,94588.22
2023-03-06T20:21:39.705Z,94583.19
2023-03-06T20:24:08.776Z,94584.00
2023-03-06T20:26:38.878Z,94582.97
2023-03-06T20:29:07.414Z,94580.34
2023-03-06T20:31:35.775Z,94583.78
2023-03-06T20:34:04.172Z,94589.25
2023-03-06T20:36:35.542Z,94574.97
2023-03-06T20:39:04.437Z,94573.94
2023-03-06T20:41:33.018Z,94565.25
2023-03-06T20:44:03.138Z,94565.81
2023-03-06T20:46:31.501Z,94561.34
2023-03-06T20:48:59.987Z,94562.38
2023-03-06T20:51:29.134Z,94563.75
2023-03-06T20:53:57.351Z,94563.41
2023-03-06T20:56:26.404Z,94561.03
2023-03-06T20:58:54.603Z,94562.28
2023-03-06T21:01:25.158Z,94557.28
2023-03-06T21:03:54.446Z,94568.34
2023-03-06T21:06:22.659Z,94553.59
2023-03-06T21:08:50.973Z,94554.88
2023-03-06T21:11:19.183Z,94559.59
2023-03-06T21:13:47.359Z,94556.16
2023-03-06T21:16:16.477Z,94550.09
2023-03-06T21:18:46.328Z,94544.25
2023-03-06T21:21:15.118Z,94547.94
2023-03-06T21:23:43.273Z,94544.50
2023-03-06T21:26:12.708Z,94543.16
2023-03-06T21:28:40.872Z,94536.06
2023-03-06T21:31:09.918Z,94540.53
2023-03-06T21:33:38.528Z,94541.78
2023-03-06T21:36:08.815Z,94544.66
2023-03-06T21:38:36.922Z,94547.28
2023-03-06T21:41:08.936Z,94535.16
2023-03-06T21:43:37.021Z,94534.06
2023-03-06T21:46:05.618Z,94540.13
2023-03-06T21:48:33.700Z,94533.50
2023-03-06T21:51:08.304Z,94530.63
2023-03-06T21:53:36.555Z,94530.88
2023-03-06T21:56:04.777Z,94528.53
2023-03-06T21:58:33.096Z,94528.88
2023-03-06T22:01:01.223Z,94529.69
2023-03-06T22:03:29.934Z,94527.84
2023-03-06T22:05:57.994Z,94523.16
2023-03-06T22:08:28.229Z,94520.53
2023-03-06T22:10:56.339Z,94520.84
2023-03-06T22:13:24.930Z,94517.97
2023-03-06T22:15:53.038Z,94514.31
2023-03-06T22:18:21.284Z,94508.00
2023-03-06T22:20:49.330Z,94509.38
2023-03-06T22:23:17.386Z,94500.47
2023-03-06T22:25:47.183Z,94496.78
2023-03-06T22:28:16.135Z,94498.38
2023-03-06T22:30:44.171Z,94495.72
2023-03-06T22:33:12.220Z,94491.84
2023-03-06T22:35:40.299Z,94494.22
2023-03-06T22:38:08.692Z,94484.50
2023-03-06T22:40:36.825Z,94487.72
2023-03-06T22:43:06.279Z,94474.56
2023-03-06T22:45:35.394Z,94479.59
2023-03-06T22:48:10.879Z,94480.13
2023-03-06T22:50:39.288Z,94475.91
2023-03-06T22:53:07.654Z,94475.13
2023-03-06T22:55:35.914Z,94470.66
2023-03-06T22:58:03.980Z,94465.63
2023-03-06T23:00:33.435Z,94470.09
2023-03-06T23:03:01.602Z,94470.88
2023-03-06T23:05:29.880Z,94471.94
2023-03-06T23:07:58.234Z,94471.13
2023-03-06T23:10:26.607Z,94467.94
2023-03-06T23:13:13.083Z,94470.56
2023-03-06T23:16:03.042Z,94465.31
2023-03-06T23:18:49.553Z,94466.09
2023-03-06T23:21:36.205Z,94466.09
2023-03-06T23:24:22.677Z,94460.84
2023-03-06T23:26:50.928Z,94461.16
2023-03-06T23:29:18.991Z,94456.44
2023-03-06T23:31:48.429Z,94469.34
2023-03-06T23:34:16.503Z,94459.41
2023-03-06T23:36:44.928Z,94454.13
2023-03-06T23:39:13.313Z,94446.81
2023-03-06T23:41:41.514Z,94442.34
2023-03-06T23:44:09.762Z,94449.72
2023-03-06T23:46:37.914Z,94451.34
2023-03-06T23:49:08.157Z,94443.69
2023-03-06T23:51:36.160Z,94445.53
2023-03-06T23:54:04.368Z,94439.22
2023-03-06T23:56:32.410Z,94435.53
2023-03-06T23:59:00.475Z,94436.34
